Time;durP1;ratioP1;P1;durP2;ratioP2;P2;SDS_P1;SDS_P2;PMS_P1;PMS_P2;Temp;Humidity;BMP_temperature;BMP_pressure;BME280_temperature;BME280_humidity;BME280_pressure;Samples;Min_cycle;Max_cycle;Signal;HPM_P1;HPM_P2
2021/08/19 00:00:44;;;;;;;;;;;;;;;;;;5048889;28;19913;-67
2021/08/19 00:03:10;;;;;;;;;;;;;;;;;;5047337;28;19916;-67
2021/08/19 00:05:36;;;;;;;;;;;;;;;;;;5048627;28;19983;-67
2021/08/19 00:08:02;;;;;;;;;;;;;;;;;;5048762;28;19904;-67
2021/08/19 00:10:28;;;;;;;;;;;;;;;;;;5048341;28;19904;-67
2021/08/19 00:12:53;;;;;;;;;;;;;;;;;;5055607;28;19957;-67
2021/08/19 00:15:19;;;;;;;;;;;;;;;;;;5068321;28;19927;-67
2021/08/19 00:17:46;;;;;;;;;;;;;;;;;;5064619;28;19913;-66
2021/08/19 00:20:12;;;;;;;;;;;;;;;;;;5067505;28;19977;-67
2021/08/19 00:22:38;;;;;;;;;;;;;;;;;;5068142;28;20383;-66
2021/08/19 00:25:04;;;;;;;;;;;;;;;;;;5068356;28;19908;-65
2021/08/19 00:27:30;;;;;;;;;;;;;;;;;;5063616;28;20037;-66
2021/08/19 00:29:56;;;;;;;;;;;;;;;;;;5048699;28;19912;-66
2021/08/19 00:32:22;;;;;;;;;;;;;;;;;;5047655;28;19904;-66
2021/08/19 00:34:48;;;;;;;;;;;;;;;;;;5048307;28;19916;-66
2021/08/19 00:37:14;;;;;;;;;;;;;;;;;;5047847;28;20330;-66
2021/08/19 00:39:39;;;;;;;;;;;;;;;;;;5047811;28;19939;-66
2021/08/19 00:42:05;;;;;;;;;;;;;;;;;;5048610;28;19931;-66
2021/08/19 00:44:31;;;;;;;;;;;;;;;;;;5047723;28;19912;-67
2021/08/19 00:46:57;;;;;;;;;;;;;;;;;;5047511;28;19913;-67
2021/08/19 00:49:23;;;;;;;;;;;;;;;;;;5053017;28;20004;-66
2021/08/19 00:51:49;;;;;;;;;;;;;;;;;;5067622;28;19939;-67
2021/08/19 00:54:15;;;;;;;;;;;;;;;;;;5067390;28;19908;-67
2021/08/19 00:56:41;;;;;;;;;;;;;;;;;;5067820;28;20003;-66
2021/08/19 00:59:08;;;;;;;;;;;;;;;;;;5050908;28;20382;-66
2021/08/19 01:01:34;;;;;;;;;;;;;;;;;;5047003;28;19908;-67
2021/08/19 01:04:00;;;;;;;;;;;;;;;;;;5047456;28;19904;-66
2021/08/19 01:06:26;;;;;;;;;;;;;;;;;;5047887;28;19912;-66
2021/08/19 01:08:52;;;;;;;;;;;;;;;;;;5046874;28;19966;-66
2021/08/19 01:11:18;;;;;;;;;;;;;;;;;;5047432;28;19961;-67
2021/08/19 01:13:43;;;;;;;;;;;;;;;;;;5047053;28;19966;-67
2021/08/19 01:16:09;;;;;;;;;;;;;;;;;;5046656;28;19936;-67
2021/08/19 01:18:35;;;;;;;;;;;;;;;;;;5045270;28;19966;-66
2021/08/19 01:21:01;;;;;;;;;;;;;;;;;;5047196;28;19977;-66
2021/08/19 01:23:27;;;;;;;;;;;;;;;;;;5047344;28;19912;-66
2021/08/19 01:25:53;;;;;;;;;;;;;;;;;;5047410;28;19916;-66
2021/08/19 01:28:19;;;;;;;;;;;;;;;;;;5046682;28;19935;-66
2021/08/19 01:30:45;;;;;;;;;;;;;;;;;;5047017;28;19905;-66
2021/08/19 01:33:11;;;;;;;;;;;;;;;;;;5046721;28;19958;-66
2021/08/19 01:35:37;;;;;;;;;;;;;;;;;;5048248;28;19935;-66
2021/08/19 01:38:03;;;;;;;;;;;;;;;;;;5046413;28;19909;-65
2021/08/19 01:40:29;;;;;;;;;;;;;;;;;;5046639;28;19966;-66
2021/08/19 01:42:55;;;;;;;;;;;;;;;;;;5047462;28;19908;-66
2021/08/19 01:45:21;;;;;;;;;;;;;;;;;;5046182;28;19901;-66
2021/08/19 01:47:47;;;;;;;;;;;;;;;;;;5046190;28;19923;-66
2021/08/19 01:50:13;;;;;;;;;;;;;;;;;;5046828;28;19909;-66
2021/08/19 01:52:39;;;;;;;;;;;;;;;;;;5046351;28;19916;-66
2021/08/19 01:55:05;;;;;;;;;;;;;;;;;;5046718;28;20057;-67
2021/08/19 01:57:31;;;;;;;;;;;;;;;;;;5046497;28;19911;-67
2021/08/19 01:59:57;;;;;;;;;;;;;;;;;;5046347;28;19939;-66
2021/08/19 02:02:23;;;;;;;;;;;;;;;;;;5046707;28;19995;-66
2021/08/19 02:04:49;;;;;;;;;;;;;;;;;;5046417;28;19943;-66
2021/08/19 02:07:15;;;;;;;;;;;;;;;;;;5046611;28;20007;-66
2021/08/19 02:09:41;;;;;;;;;;;;;;;;;;5058266;28;19909;-66
2021/08/19 02:12:07;;;;;;;;;;;;;;;;;;5066338;28;19935;-66
2021/08/19 02:14:33;;;;;;;;;;;;;;;;;;5066320;28;19912;-66
2021/08/19 02:16:59;;;;;;;;;;;;;;;;;;5066645;28;20298;-65
2021/08/19 02:19:24;;;;;;;;;;;;;;;;;;5054916;28;19912;-66
2021/08/19 02:21:50;;;;;;;;;;;;;;;;;;5046570;28;19904;-66
2021/08/19 02:24:16;;;;;;;;;;;;;;;;;;5052356;28;20011;-66
2021/08/19 02:26:42;;;;;;;;;;;;;;;;;;5069318;28;19908;-65
2021/08/19 02:29:08;;;;;;;;;;;;;;;;;;5060982;28;19909;-66
2021/08/19 02:31:36;;;;;;;;;;;;;;;;;;5050272;28;19911;-65
2021/08/19 02:34:03;;;;;;;;;;;;;;;;;;5049752;28;19951;-66
2021/08/19 02:36:29;;;;;;;;;;;;;;;;;;5050267;28;19916;-65
2021/08/19 02:38:55;;;;;;;;;;;;;;;;;;5050790;28;19909;-65
2021/08/19 02:41:21;;;;;;;;;;;;;;;;;;5049975;28;19954;-65
2021/08/19 02:43:47;;;;;;;;;;;;;;;;;;5049697;28;19926;-65
2021/08/19 02:46:13;;;;;;;;;;;;;;;;;;5049966;28;19979;-65
2021/08/19 02:48:39;;;;;;;;;;;;;;;;;;5049131;28;20426;-65
2021/08/19 02:51:05;;;;;;;;;;;;;;;;;;5050236;28;19988;-65
2021/08/19 02:53:31;;;;;;;;;;;;;;;;;;5049733;28;19916;-65
2021/08/19 02:55:57;;;;;;;;;;;;;;;;;;5050483;28;20536;-66
2021/08/19 02:58:23;;;;;;;;;;;;;;;;;;5057079;28;20018;-65
2021/08/19 03:00:49;;;;;;;;;;;;;;;;;;5068690;28;20516;-66
2021/08/19 03:03:15;;;;;;;;;;;;;;;;;;5049716;28;19912;-65
2021/08/19 03:05:41;;;;;;;;;;;;;;;;;;5049344;28;19909;-65
2021/08/19 03:08:07;;;;;;;;;;;;;;;;;;5049998;28;19909;-65
2021/08/19 03:10:33;;;;;;;;;;;;;;;;;;5049593;28;20025;-65
2021/08/19 03:12:59;;;;;;;;;;;;;;;;;;5049567;28;19913;-65
2021/08/19 03:15:25;;;;;;;;;;;;;;;;;;5049922;28;19905;-64
2021/08/19 03:17:51;;;;;;;;;;;;;;;;;;5049693;28;19999;-64
2021/08/19 03:20:17;;;;;;;;;;;;;;;;;;5062182;28;19912;-64
2021/08/19 03:22:43;;;;;;;;;;;;;;;;;;5069466;28;19915;-65
2021/08/19 03:25:10;;;;;;;;;;;;;;;;;;5067195;28;19908;-65
2021/08/19 03:27:36;;;;;;;;;;;;;;;;;;5049302;28;19908;-65
2021/08/19 03:30:02;;;;;;;;;;;;;;;;;;5063089;28;20464;-65
2021/08/19 03:32:28;;;;;;;;;;;;;;;;;;5068973;28;20038;-64
2021/08/19 03:34:54;;;;;;;;;;;;;;;;;;5068575;28;19920;-65
2021/08/19 03:37:20;;;;;;;;;;;;;;;;;;5067012;28;19912;-64
2021/08/19 03:39:46;;;;;;;;;;;;;;;;;;5067998;28;20413;-65
2021/08/19 03:42:12;;;;;;;;;;;;;;;;;;5052226;28;19913;-65
2021/08/19 03:44:38;;;;;;;;;;;;;;;;;;5048164;28;19908;-64
2021/08/19 03:47:05;;;;;;;;;;;;;;;;;;5049315;28;19995;-65
2021/08/19 03:49:31;;;;;;;;;;;;;;;;;;5060333;28;19967;-64
2021/08/19 03:51:57;;;;;;;;;;;;;;;;;;5055410;28;20539;-65
2021/08/19 03:54:22;;;;;;;;;;;;;;;;;;5049291;28;19971;-65
2021/08/19 03:56:49;;;;;;;;;;;;;;;;;;5048994;28;19913;-65
2021/08/19 03:59:15;;;;;;;;;;;;;;;;;;5048914;28;20379;-65
2021/08/19 04:01:41;;;;;;;;;;;;;;;;;;5048455;28;19908;-65
2021/08/19 04:04:07;;;;;;;;;;;;;;;;;;5048716;28;19915;-65
2021/08/19 04:06:33;;;;;;;;;;;;;;;;;;5067055;28;19912;-65
2021/08/19 04:08:59;;;;;;;;;;;;;;;;;;5068611;28;19943;-64
2021/08/19 04:11:25;;;;;;;;;;;;;;;;;;5060225;28;19951;-65
2021/08/19 04:13:51;;;;;;;;;;;;;;;;;;5048203;28;19912;-65
2021/08/19 04:16:17;;;;;;;;;;;;;;;;;;5048480;28;19909;-64
2021/08/19 04:18:43;;;;;;;;;;;;;;;;;;5048661;28;20405;-64
2021/08/19 04:21:09;;;;;;;;;;;;;;;;;;5050222;28;19919;-64
2021/08/19 04:23:35;;;;;;;;;;;;;;;;;;5068142;28;19912;-65
2021/08/19 04:26:01;;;;;;;;;;;;;;;;;;5051268;28;19909;-65
2021/08/19 04:28:28;;;;;;;;;;;;;;;;;;5048771;28;19909;-64
2021/08/19 04:30:54;;;;;;;;;;;;;;;;;;5048597;28;20345;-65
2021/08/19 04:33:23;;;;;;;;;;;;;;;;;;5047874;28;19909;-65
2021/08/19 04:35:49;;;;;;;;;;;;;;;;;;5047686;28;19915;-65
2021/08/19 04:38:15;;;;;;;;;;;;;;;;;;5047852;28;19908;-65
2021/08/19 04:40:41;;;;;;;;;;;;;;;;;;5047535;28;19905;-65
2021/08/19 04:43:06;;;;;;;;;;;;;;;;;;5047737;28;19916;-65
2021/08/19 04:45:32;;;;;;;;;;;;;;;;;;5046852;28;19912;-65
2021/08/19 04:47:58;;;;;;;;;;;;;;;;;;5047982;28;19909;-64
2021/08/19 04:50:24;;;;;;;;;;;;;;;;;;5048268;28;19950;-65
2021/08/19 04:52:50;;;;;;;;;;;;;;;;;;5047376;28;19944;-65
2021/08/19 04:55:16;;;;;;;;;;;;;;;;;;5047374;28;19909;-65
2021/08/19 04:57:42;;;;;;;;;;;;;;;;;;5047848;28;19951;-65
2021/08/19 05:00:09;;;;;;;;;;;;;;;;;;5047375;28;19905;-65
2021/08/19 05:02:35;;;;;;;;;;;;;;;;;;5057470;28;20399;-66
2021/08/19 05:05:01;;;;;;;;;;;;;;;;;;5067444;28;19905;-65
2021/08/19 05:07:27;;;;;;;;;;;;;;;;;;5067863;28;19931;-65
2021/08/19 05:09:53;;;;;;;;;;;;;;;;;;5067965;28;19908;-65
2021/08/19 05:12:19;;;;;;;;;;;;;;;;;;5058286;28;19909;-65
2021/08/19 05:14:44;;;;;;;;;;;;;;;;;;5063300;28;19939;-65
2021/08/19 05:17:10;;;;;;;;;;;;;;;;;;5066049;28;19915;-64
2021/08/19 05:19:36;;;;;;;;;;;;;;;;;;5047178;28;19909;-64
2021/08/19 05:22:02;;;;;;;;;;;;;;;;;;5047354;28;19912;-64
2021/08/19 05:24:28;;;;;;;;;;;;;;;;;;5047052;28;19923;-64
2021/08/19 05:26:54;;;;;;;;;;;;;;;;;;5047862;28;19967;-64
2021/08/19 05:29:20;;;;;;;;;;;;;;;;;;5046557;28;19904;-70
2021/08/19 05:31:46;;;;;;;;;;;;;;;;;;5045943;28;19916;-65
2021/08/19 05:34:12;;;;;;;;;;;;;;;;;;5046936;28;19934;-65
2021/08/19 05:36:38;;;;;;;;;;;;;;;;;;5047339;28;19909;-66
2021/08/19 05:39:04;;;;;;;;;;;;;;;;;;5056428;28;19958;-65
2021/08/19 05:41:30;;;;;;;;;;;;;;;;;;5058972;28;19912;-65
2021/08/19 05:43:56;;;;;;;;;;;;;;;;;;5062041;28;19912;-66
2021/08/19 05:46:22;;;;;;;;;;;;;;;;;;5047424;28;19909;-65
2021/08/19 05:48:48;;;;;;;;;;;;;;;;;;5050988;28;19944;-65
2021/08/19 05:51:14;;;;;;;;;;;;;;;;;;5065844;28;19908;-64
2021/08/19 05:53:41;;;;;;;;;;;;;;;;;;5066575;28;19958;-65
2021/08/19 05:56:07;;;;;;;;;;;;;;;;;;5064816;28;19931;-65
2021/08/19 05:58:33;;;;;;;;;;;;;;;;;;5046748;28;19959;-66
2021/08/19 06:00:59;;;;;;;;;;;;;;;;;;5049943;28;19916;-65
2021/08/19 06:03:25;;;;;;;;;;;;;;;;;;5046937;28;20563;-65
2021/08/19 06:05:51;;;;;;;;;;;;;;;;;;5046614;28;19911;-65
2021/08/19 06:08:16;;;;;;;;;;;;;;;;;;5050773;28;20580;-65
2021/08/19 06:10:42;;;;;;;;;;;;;;;;;;5049967;28;19919;-65
2021/08/19 06:13:08;;;;;;;;;;;;;;;;;;5047239;28;19924;-65
2021/08/19 06:15:34;;;;;;;;;;;;;;;;;;5049670;28;19916;-65
2021/08/19 06:18:00;;;;;;;;;;;;;;;;;;5056580;28;19951;-64
2021/08/19 06:20:26;;;;;;;;;;;;;;;;;;5051085;28;19915;-64
2021/08/19 06:22:52;;;;;;;;;;;;;;;;;;5058843;28;19947;-63
2021/08/19 06:25:18;;;;;;;;;;;;;;;;;;5060553;28;20031;-63
2021/08/19 06:27:44;;;;;;;;;;;;;;;;;;5055590;28;19995;-64
2021/08/19 06:30:10;;;;;;;;;;;;;;;;;;5051284;28;19916;-63
2021/08/19 06:32:36;;;;;;;;;;;;;;;;;;5061454;28;19951;-64
2021/08/19 06:35:02;;;;;;;;;;;;;;;;;;5050536;28;19966;-63
2021/08/19 06:37:28;;;;;;;;;;;;;;;;;;5062787;28;19963;-63
2021/08/19 06:39:54;;;;;;;;;;;;;;;;;;5054274;28;20339;-63
2021/08/19 06:42:20;;;;;;;;;;;;;;;;;;5063424;28;19920;-64
2021/08/19 06:44:47;;;;;;;;;;;;;;;;;;5073320;28;20402;-63
2021/08/19 06:47:13;;;;;;;;;;;;;;;;;;5051923;28;19919;-64
2021/08/19 06:49:41;;;;;;;;;;;;;;;;;;5053329;28;19908;-64
2021/08/19 06:52:07;;;;;;;;;;;;;;;;;;5047463;28;19912;-64
2021/08/19 06:54:33;;;;;;;;;;;;;;;;;;5047116;28;19917;-64
2021/08/19 06:57:01;;;;;;;;;;;;;;;;;;5054888;28;19912;-64
2021/08/19 06:59:27;;;;;;;;;;;;;;;;;;5064977;28;20218;-65
2021/08/19 07:01:54;;;;;;;;;;;;;;;;;;5064970;28;19924;-65
2021/08/19 07:04:21;;;;;;;;;;;;;;;;;;5063451;28;20390;-65
2021/08/19 07:06:47;;;;;;;;;;;;;;;;;;5065354;28;19947;-64
2021/08/19 07:09:13;;;;;;;;;;;;;;;;;;5066180;28;20343;-64
2021/08/19 07:11:38;;;;;;;;;;;;;;;;;;5065199;28;20323;-64
2021/08/19 07:14:04;;;;;;;;;;;;;;;;;;5068208;28;19908;-64
2021/08/19 07:16:30;;;;;;;;;;;;;;;;;;5066993;28;19965;-64
2021/08/19 07:18:56;;;;;;;;;;;;;;;;;;5049117;28;19915;-64
2021/08/19 07:21:22;;;;;;;;;;;;;;;;;;5048627;28;20018;-65
2021/08/19 07:23:48;;;;;;;;;;;;;;;;;;5048860;28;19999;-64
2021/08/19 07:26:14;;;;;;;;;;;;;;;;;;5063578;28;19912;-64
2021/08/19 07:28:40;;;;;;;;;;;;;;;;;;5064409;28;20279;-62
2021/08/19 07:31:06;;;;;;;;;;;;;;;;;;5056315;28;20201;-63
2021/08/19 07:33:32;;;;;;;;;;;;;;;;;;5048065;28;20575;-64
2021/08/19 07:35:58;;;;;;;;;;;;;;;;;;5057633;28;19916;-64
2021/08/19 07:38:24;;;;;;;;;;;;;;;;;;5057424;28;19912;-64
2021/08/19 07:40:50;;;;;;;;;;;;;;;;;;5054682;28;19913;-64
2021/08/19 07:43:15;;;;;;;;;;;;;;;;;;5059921;28;19911;-64
2021/08/19 07:45:41;;;;;;;;;;;;;;;;;;5052666;28;19913;-64
2021/08/19 07:48:08;;;;;;;;;;;;;;;;;;5048563;28;19913;-65
2021/08/19 07:50:34;;;;;;;;;;;;;;;;;;5049473;28;19978;-65
2021/08/19 07:53:01;;;;;;;;;;;;;;;;;;5054181;28;20580;-65
2021/08/19 07:55:27;;;;;;;;;;;;;;;;;;5060243;28;19955;-65
2021/08/19 07:57:52;;;;;;;;;;;;;;;;;;5049354;28;19952;-66
2021/08/19 08:00:18;;;;;;;;;;;;;;;;;;5085417;28;19911;-65
2021/08/19 08:02:45;;;;;;;;;;;;;;;;;;5069082;28;20014;-66
2021/08/19 08:05:11;;;;;;;;;;;;;;;;;;5087046;28;19908;-66
2021/08/19 08:07:38;;;;;;;;;;;;;;;;;;5066123;28;19904;-67
2021/08/19 08:10:05;;;;;;;;;;;;;;;;;;5064199;28;19912;-68
2021/08/19 08:12:33;;;;;;;;;;;;;;;;;;5046613;28;19905;-69
2021/08/19 08:14:59;;;;;;;;;;;;;;;;;;5047045;28;19979;-68
2021/08/19 08:17:26;;;;;;;;;;;;;;;;;;5047787;28;20403;-68
2021/08/19 08:19:52;;;;;;;;;;;;;;;;;;5047096;28;19905;-65
2021/08/19 08:22:18;;;;;;;;;;;;;;;;;;5047134;28;19923;-66
2021/08/19 08:24:44;;;;;;;;;;;;;;;;;;5065605;28;20018;-66
2021/08/19 08:27:10;;;;;;;;;;;;;;;;;;5064460;28;19999;-67
2021/08/19 08:29:37;;;;;;;;;;;;;;;;;;5051402;28;19995;-67
2021/08/19 08:32:06;;;;;;;;;;;;;;;;;;5046972;28;19908;-66
2021/08/19 08:34:33;;;;;;;;;;;;;;;;;;5046660;28;20159;-70
2021/08/19 08:36:59;;;;;;;;;;;;;;;;;;5053201;28;19913;-67
2021/08/19 08:39:25;;;;;;;;;;;;;;;;;;5057871;28;19923;-67
2021/08/19 08:41:51;;;;;;;;;;;;;;;;;;5046444;28;19905;-69
2021/08/19 08:44:17;;;;;;;;;;;;;;;;;;5046106;28;20019;-67
2021/08/19 08:46:43;;;;;;;;;;;;;;;;;;5047056;28;20240;-65
2021/08/19 08:49:09;;;;;;;;;;;;;;;;;;5054923;28;19992;-64
2021/08/19 08:51:35;;;;;;;;;;;;;;;;;;5045915;28;19908;-70
2021/08/19 08:54:02;;;;;;;;;;;;;;;;;;5061227;28;19916;-71
2021/08/19 08:56:29;;;;;;;;;;;;;;;;;;5066298;28;19912;-70
2021/08/19 08:58:55;;;;;;;;;;;;;;;;;;5067096;28;20303;-70
2021/08/19 09:01:22;;;;;;;;;;;;;;;;;;5046946;28;19915;-71
2021/08/19 09:03:48;;;;;;;;;;;;;;;;;;5059891;28;20508;-68
2021/08/19 09:06:14;;;;;;;;;;;;;;;;;;5071861;28;19908;-67
2021/08/19 09:08:40;;;;;;;;;;;;;;;;;;5068660;28;19911;-68
2021/08/19 09:11:06;;;;;;;;;;;;;;;;;;5053876;28;19913;-68
2021/08/19 09:13:32;;;;;;;;;;;;;;;;;;5054604;28;19960;-68
2021/08/19 09:15:58;;;;;;;;;;;;;;;;;;5065455;28;20406;-69
2021/08/19 09:18:24;;;;;;;;;;;;;;;;;;5056532;28;19913;-66
2021/08/19 09:20:50;;;;;;;;;;;;;;;;;;5064073;28;19991;-66
2021/08/19 09:23:16;;;;;;;;;;;;;;;;;;5066374;28;19904;-68
2021/08/19 09:25:42;;;;;;;;;;;;;;;;;;5054332;28;19913;-64
2021/08/19 09:28:08;;;;;;;;;;;;;;;;;;5048552;28;19996;-63
2021/08/19 09:30:34;;;;;;;;;;;;;;;;;;5056546;28;19920;-65
2021/08/19 09:33:00;;;;;;;;;;;;;;;;;;5058123;28;19958;-66
2021/08/19 09:35:26;;;;;;;;;;;;;;;;;;5050793;28;19916;-65
2021/08/19 09:37:52;;;;;;;;;;;;;;;;;;5056117;28;19908;-66
2021/08/19 09:40:18;;;;;;;;;;;;;;;;;;5059549;28;19943;-64
2021/08/19 09:42:44;;;;;;;;;;;;;;;;;;5055043;28;19939;-64
2021/08/19 09:45:09;;;;;;;;;;;;;;;;;;5053576;28;19908;-64
2021/08/19 09:47:35;;;;;;;;;;;;;;;;;;5057567;28;20085;-63
2021/08/19 09:50:01;;;;;;;;;;;;;;;;;;5054732;28;19982;-64
2021/08/19 09:52:27;;;;;;;;;;;;;;;;;;5046627;28;19912;-64
2021/08/19 09:54:54;;;;;;;;;;;;;;;;;;5068880;28;20528;-64
2021/08/19 09:57:20;;;;;;;;;;;;;;;;;;5060953;28;19912;-62
2021/08/19 09:59:46;;;;;;;;;;;;;;;;;;5059641;28;19916;-63
2021/08/19 10:02:12;;;;;;;;;;;;;;;;;;5050858;28;19936;-63
2021/08/19 10:04:38;;;;;;;;;;;;;;;;;;5046186;28;20284;-64
2021/08/19 10:07:04;;;;;;;;;;;;;;;;;;5083858;28;19903;-64
2021/08/19 10:09:30;;;;;;;;;;;;;;;;;;5063665;28;19915;-62
2021/08/19 10:11:56;;;;;;;;;;;;;;;;;;5048963;28;20447;-63
2021/08/19 10:14:22;;;;;;;;;;;;;;;;;;5048461;28;19916;-62
2021/08/19 10:16:48;;;;;;;;;;;;;;;;;;5062578;28;19955;-62
2021/08/19 10:19:14;;;;;;;;;;;;;;;;;;5063284;28;19934;-62
2021/08/19 10:21:40;;;;;;;;;;;;;;;;;;5051063;28;19915;-64
2021/08/19 10:24:06;;;;;;;;;;;;;;;;;;5063768;28;19912;-63
2021/08/19 10:26:32;;;;;;;;;;;;;;;;;;5057170;28;19915;-62
2021/08/19 10:28:58;;;;;;;;;;;;;;;;;;5052941;28;19981;-62
2021/08/19 10:31:24;;;;;;;;;;;;;;;;;;5055720;28;20370;-62
2021/08/19 10:33:50;;;;;;;;;;;;;;;;;;5052609;28;19920;-63
2021/08/19 10:36:16;;;;;;;;;;;;;;;;;;5059625;28;19908;-63
2021/08/19 10:38:42;;;;;;;;;;;;;;;;;;5058751;28;19943;-62
2021/08/19 10:41:08;;;;;;;;;;;;;;;;;;5058408;28;19974;-63
2021/08/19 10:43:34;;;;;;;;;;;;;;;;;;5059528;28;19928;-63
2021/08/19 10:46:00;;;;;;;;;;;;;;;;;;5059345;28;19912;-62
2021/08/19 10:48:25;;;;;;;;;;;;;;;;;;5060781;28;19961;-62
2021/08/19 10:50:51;;;;;;;;;;;;;;;;;;5070149;28;20002;-62
2021/08/19 10:53:17;;;;;;;;;;;;;;;;;;5067556;28;19912;-62
2021/08/19 10:55:43;;;;;;;;;;;;;;;;;;5068013;28;19916;-63
2021/08/19 10:58:09;;;;;;;;;;;;;;;;;;5058840;28;19914;-63
2021/08/19 11:00:35;;;;;;;;;;;;;;;;;;5059621;28;19919;-63
2021/08/19 11:03:01;;;;;;;;;;;;;;;;;;5058017;28;19913;-63
2021/08/19 11:05:28;;;;;;;;;;;;;;;;;;5050872;28;19912;-63
2021/08/19 11:07:54;;;;;;;;;;;;;;;;;;5060663;28;19909;-63
2021/08/19 11:10:20;;;;;;;;;;;;;;;;;;5050870;28;19916;-63
2021/08/19 11:12:47;;;;;;;;;;;;;;;;;;5066182;28;20027;-63
2021/08/19 11:15:13;;;;;;;;;;;;;;;;;;5061541;28;19916;-63
2021/08/19 11:17:39;;;;;;;;;;;;;;;;;;5060818;28;19920;-63
2021/08/19 11:20:05;;;;;;;;;;;;;;;;;;5061229;28;19953;-63
2021/08/19 11:22:31;;;;;;;;;;;;;;;;;;5065697;28;19995;-62
2021/08/19 11:24:56;;;;;;;;;;;;;;;;;;5050027;28;19961;-63
2021/08/19 11:27:22;;;;;;;;;;;;;;;;;;5067064;28;19913;-65
2021/08/19 11:29:49;;;;;;;;;;;;;;;;;;5062614;28;19958;-63
2021/08/19 11:32:16;;;;;;;;;;;;;;;;;;5066514;28;20291;-62
2021/08/19 11:34:42;;;;;;;;;;;;;;;;;;5068896;28;19944;-62
2021/08/19 11:37:08;;;;;;;;;;;;;;;;;;5060120;28;19955;-63
2021/08/19 11:39:34;;;;;;;;;;;;;;;;;;5050553;28;19963;-62
2021/08/19 11:42:00;;;;;;;;;;;;;;;;;;5060638;28;19913;-64
2021/08/19 11:44:26;;;;;;;;;;;;;;;;;;5064952;28;19908;-66
2021/08/19 11:46:51;;;;;;;;;;;;;;;;;;5050186;28;19927;-66
2021/08/19 11:49:17;;;;;;;;;;;;;;;;;;5055016;28;19909;-66
2021/08/19 11:51:43;;;;;;;;;;;;;;;;;;5053424;28;19920;-66
2021/08/19 11:54:13;;;;;;;;;;;;;;;;;;5055772;28;19917;-67
2021/08/19 11:56:39;;;;;;;;;;;;;;;;;;5059535;28;20032;-67
2021/08/19 11:59:05;;;;;;;;;;;;;;;;;;5048996;28;20370;-66
2021/08/19 12:01:31;;;;;;;;;;;;;;;;;;5058531;28;19999;-66
2021/08/19 12:06:27;;;;;;;;;;;;;;;;;;5055578;28;20339;-66
2021/08/19 12:08:53;;;;;;;;;;;;;;;;;;5043361;28;20384;-67
2021/08/19 12:11:19;;;;;;;;;;;;;;;;;;5043958;28;20014;-66
2021/08/19 12:13:45;;;;;;;;;;;;;;;;;;5031013;28;19967;-67
2021/08/19 12:16:11;;;;;;;;;;;;;;;;;;5024592;28;19965;-66
2021/08/19 12:18:37;;;;;;;;;;;;;;;;;;5024367;28;20335;-66
2021/08/19 12:21:04;;;;;;;;;;;;;;;;;;5023512;28;19913;-66
2021/08/19 12:23:30;;;;;;;;;;;;;;;;;;5023178;28;20383;-66
2021/08/19 12:25:57;;;;;;;;;;;;;;;;;;5023705;28;19971;-66
2021/08/19 12:28:22;;;;;;;;;;;;;;;;;;5038601;28;20388;-66
2021/08/19 12:30:48;;;;;;;;;;;;;;;;;;5023491;28;19920;-66
2021/08/19 12:33:15;;;;;;;;;;;;;;;;;;5023483;28;19909;-66
2021/08/19 12:35:42;;;;;;;;;;;;;;;;;;5023443;28;19909;-66
2021/08/19 12:38:08;;;;;;;;;;;;;;;;;;5023050;28;20333;-66
2021/08/19 12:40:34;;;;;;;;;;;;;;;;;;5022599;28;19961;-66
2021/08/19 12:43:00;;;;;;;;;;;;;;;;;;5022935;28;20359;-66
2021/08/19 12:45:26;;;;;;;;;;;;;;;;;;5023123;28;20012;-67
2021/08/19 12:47:52;;;;;;;;;;;;;;;;;;5023048;28;20020;-66
2021/08/19 12:50:18;;;;;;;;;;;;;;;;;;5022799;28;20467;-66
2021/08/19 12:52:47;;;;;;;;;;;;;;;;;;5023042;28;19909;-66
2021/08/19 12:55:13;;;;;;;;;;;;;;;;;;5022464;28;19913;-66
2021/08/19 12:57:39;;;;;;;;;;;;;;;;;;5020556;28;19917;-66
2021/08/19 13:00:05;;;;;;;;;;;;;;;;;;5021486;28;20332;-65
2021/08/19 13:02:31;;;;;;;;;;;;;;;;;;5021089;28;19910;-63
2021/08/19 13:04:57;;;;;;;;;;;;;;;;;;5021859;28;19917;-63
2021/08/19 13:07:23;;;;;;;;;;;;;;;;;;5021162;28;19972;-63
2021/08/19 13:09:48;;;;;;;;;;;;;;;;;;5021236;28;20308;-64
2021/08/19 13:12:14;;;;;;;;;;;;;;;;;;5021725;28;19910;-63
2021/08/19 13:14:40;;;;;;;;;;;;;;;;;;5021099;28;19916;-64
2021/08/19 13:17:07;;;;;;;;;;;;;;;;;;5012105;28;19917;-64
2021/08/19 13:19:34;;;;;;;;;;;;;;;;;;5008188;28;19917;-64
2021/08/19 13:22:00;;;;;;;;;;;;;;;;;;5008174;28;19940;-64
2021/08/19 13:24:27;;;;;;;;;;;;;;;;;;5008259;28;19914;-63
2021/08/19 13:26:53;;;;;;;;;;;;;;;;;;5021059;28;19913;-63
2021/08/19 13:29:19;;;;;;;;;;;;;;;;;;5013479;28;19976;-63
2021/08/19 13:31:45;;;;;;;;;;;;;;;;;;5007866;28;19925;-64
2021/08/19 13:34:11;;;;;;;;;;;;;;;;;;5007737;28;20000;-64
2021/08/19 13:36:37;;;;;;;;;;;;;;;;;;5006353;28;20039;-64
2021/08/19 13:39:04;;;;;;;;;;;;;;;;;;5007902;28;19960;-64
2021/08/19 13:41:31;;;;;;;;;;;;;;;;;;5006473;28;19913;-63
2021/08/19 13:43:58;;;;;;;;;;;;;;;;;;5006706;28;19941;-64
2021/08/19 13:46:24;;;;;;;;;;;;;;;;;;5008154;28;20368;-64
2021/08/19 13:48:50;;;;;;;;;;;;;;;;;;5007861;28;20024;-64
2021/08/19 13:51:17;;;;;;;;;;;;;;;;;;5006026;28;19913;-64
2021/08/19 13:53:43;;;;;;;;;;;;;;;;;;5007372;28;19917;-64
2021/08/19 13:56:09;;;;;;;;;;;;;;;;;;5007606;28;19925;-64
2021/08/19 13:58:35;;;;;;;;;;;;;;;;;;5016055;28;20451;-67
2021/08/19 14:01:01;;;;;;;;;;;;;;;;;;5026879;28;19921;-66
2021/08/19 14:03:27;;;;;;;;;;;;;;;;;;5023542;28;19910;-66
2021/08/19 14:05:53;;;;;;;;;;;;;;;;;;5026337;28;20404;-66
2021/08/19 14:08:19;;;;;;;;;;;;;;;;;;5026125;28;20439;-66
2021/08/19 14:10:45;;;;;;;;;;;;;;;;;;5024393;28;19920;-67
2021/08/19 14:13:12;;;;;;;;;;;;;;;;;;5025989;28;19956;-66
2021/08/19 14:15:39;;;;;;;;;;;;;;;;;;5037045;28;19944;-66
2021/08/19 14:18:05;;;;;;;;;;;;;;;;;;5006368;28;20300;-67
2021/08/19 14:20:31;;;;;;;;;;;;;;;;;;5006170;28;19909;-67
2021/08/19 14:22:57;;;;;;;;;;;;;;;;;;5006776;28;20094;-67
2021/08/19 14:25:24;;;;;;;;;;;;;;;;;;5005893;28;19925;-66
2021/08/19 14:27:51;;;;;;;;;;;;;;;;;;5005411;28;20004;-66
2021/08/19 14:30:17;;;;;;;;;;;;;;;;;;5019284;28;19960;-65
2021/08/19 14:32:43;;;;;;;;;;;;;;;;;;5041729;28;19909;-66
2021/08/19 14:35:10;;;;;;;;;;;;;;;;;;5035779;28;19924;-65
2021/08/19 14:37:35;;;;;;;;;;;;;;;;;;5005545;28;19917;-66
2021/08/19 14:40:02;;;;;;;;;;;;;;;;;;5020579;28;19935;-65
2021/08/19 14:42:28;;;;;;;;;;;;;;;;;;5026051;28;19936;-65
2021/08/19 14:44:54;;;;;;;;;;;;;;;;;;5041122;28;19917;-66
2021/08/19 14:47:20;;;;;;;;;;;;;;;;;;5025487;28;19992;-66
2021/08/19 14:49:46;;;;;;;;;;;;;;;;;;5022941;28;19920;-66
2021/08/19 14:52:12;;;;;;;;;;;;;;;;;;5022834;28;19920;-67
2021/08/19 14:54:38;;;;;;;;;;;;;;;;;;5029883;28;19917;-65
2021/08/19 14:57:04;;;;;;;;;;;;;;;;;;5005766;28;20133;-64
2021/08/19 14:59:32;;;;;;;;;;;;;;;;;;5004959;28;20348;-65
2021/08/19 15:01:58;;;;;;;;;;;;;;;;;;5004514;28;20016;-67
2021/08/19 15:04:24;;;;;;;;;;;;;;;;;;5007577;28;20102;-67
2021/08/19 15:06:50;;;;;;;;;;;;;;;;;;5032235;28;19917;-66
2021/08/19 15:09:15;;;;;;;;;;;;;;;;;;5007963;28;19953;-70
2021/08/19 15:11:41;;;;;;;;;;;;;;;;;;5020009;28;19920;-67
2021/08/19 15:14:07;;;;;;;;;;;;;;;;;;5003331;28;20399;-66
2021/08/19 15:16:33;;;;;;;;;;;;;;;;;;5003233;28;20338;-66
2021/08/19 15:19:00;;;;;;;;;;;;;;;;;;5004941;28;19921;-64
2021/08/19 15:21:26;;;;;;;;;;;;;;;;;;5013134;28;19920;-65
2021/08/19 15:23:53;;;;;;;;;;;;;;;;;;5012841;28;19914;-65
2021/08/19 15:26:19;;;;;;;;;;;;;;;;;;5002012;28;19929;-66
2021/08/19 15:28:45;;;;;;;;;;;;;;;;;;5006047;28;19917;-67
2021/08/19 15:31:11;;;;;;;;;;;;;;;;;;5001795;28;19910;-65
2021/08/19 15:33:37;;;;;;;;;;;;;;;;;;5006616;28;19959;-66
2021/08/19 15:36:02;;;;;;;;;;;;;;;;;;5005619;28;20000;-63
2021/08/19 15:38:29;;;;;;;;;;;;;;;;;;5020871;28;20442;-64
2021/08/19 15:40:56;;;;;;;;;;;;;;;;;;5002903;28;19917;-63
2021/08/19 15:43:22;;;;;;;;;;;;;;;;;;5020907;28;20225;-64
2021/08/19 15:45:48;;;;;;;;;;;;;;;;;;5004395;28;19917;-63
2021/08/19 15:48:14;;;;;;;;;;;;;;;;;;5003405;28;20347;-64
2021/08/19 15:50:40;;;;;;;;;;;;;;;;;;5005731;28;19913;-64
2021/08/19 15:53:07;;;;;;;;;;;;;;;;;;5005925;28;19952;-65
2021/08/19 15:55:34;;;;;;;;;;;;;;;;;;5010777;28;20384;-65
2021/08/19 15:57:59;;;;;;;;;;;;;;;;;;5022191;28;19921;-65
2021/08/19 16:00:25;;;;;;;;;;;;;;;;;;5006843;28;19932;-64
2021/08/19 16:02:52;;;;;;;;;;;;;;;;;;5004673;28;19914;-64
2021/08/19 16:05:19;;;;;;;;;;;;;;;;;;5006152;28;20467;-62
2021/08/19 16:07:45;;;;;;;;;;;;;;;;;;5005797;28;20000;-64
2021/08/19 16:10:11;;;;;;;;;;;;;;;;;;5020387;28;20003;-64
2021/08/19 16:12:37;;;;;;;;;;;;;;;;;;5038190;28;19966;-64
2021/08/19 16:15:03;;;;;;;;;;;;;;;;;;5025829;28;19909;-63
2021/08/19 16:17:29;;;;;;;;;;;;;;;;;;5026548;28;20442;-62
2021/08/19 16:19:55;;;;;;;;;;;;;;;;;;5021188;28;19924;-62
2021/08/19 16:22:21;;;;;;;;;;;;;;;;;;5005745;28;19910;-64
2021/08/19 16:24:47;;;;;;;;;;;;;;;;;;5005892;28;20389;-63
2021/08/19 16:27:13;;;;;;;;;;;;;;;;;;5006232;28;19909;-64
2021/08/19 16:29:39;;;;;;;;;;;;;;;;;;5004816;28;20282;-65
2021/08/19 16:32:05;;;;;;;;;;;;;;;;;;5021322;28;19910;-64
2021/08/19 16:34:31;;;;;;;;;;;;;;;;;;5021355;28;19941;-64
2021/08/19 16:36:57;;;;;;;;;;;;;;;;;;5005575;28;19913;-63
2021/08/19 16:39:23;;;;;;;;;;;;;;;;;;5004033;28;19914;-64